createdAt,value
2023-04-23T00:00:37.964Z,100697.41
2023-04-23T00:03:10.332Z,100692.25
2023-04-23T00:05:42.075Z,100686.38
2023-04-23T00:08:11.669Z,100690.66
2023-04-23T00:10:39.763Z,100689.81
2023-04-23T00:13:07.970Z,100691.81
2023-04-23T00:15:36.656Z,100684.81
2023-04-23T00:18:04.541Z,100677.38
2023-04-23T00:20:32.441Z,100672.19
2023-04-23T00:23:02.037Z,100678.22
2023-04-23T00:25:29.986Z,100682.78
2023-04-23T00:27:58.155Z,100677.63
2023-04-23T00:30:25.969Z,100675.06
2023-04-23T00:32:53.771Z,100671.47
2023-04-23T00:35:21.594Z,100673.94
2023-04-23T00:37:49.418Z,100667.63
2023-04-23T00:40:18.532Z,100663.94
2023-04-23T00:42:46.335Z,100655.38
2023-04-23T00:45:14.158Z,100651.41
2023-04-23T00:47:42.376Z,100655.97
2023-04-23T00:50:11.448Z,100645.13
2023-04-23T00:52:40.804Z,100643.56
2023-04-23T00:55:09.587Z,100644.28
2023-04-23T00:57:39.798Z,100633.47
2023-04-23T01:00:09.418Z,100625.16
2023-04-23T01:02:38.489Z,100640.84
2023-04-23T01:05:08.695Z,100633.13
2023-04-23T01:07:37.022Z,100636.44
2023-04-23T01:10:05.916Z,100629.28
2023-04-23T01:12:34.628Z,100638.16
2023-04-23T01:15:05.761Z,100623.44
2023-04-23T01:17:34.488Z,100633.47
2023-04-23T01:20:02.369Z,100631.59
2023-04-23T01:22:31.507Z,100629.88
2023-04-23T01:24:59.344Z,100623.47
2023-04-23T01:27:27.273Z,100617.03
2023-04-23T01:29:55.689Z,100619.44
2023-04-23T01:32:23.714Z,100615.75
2023-04-23T01:34:53.957Z,100624.63
2023-04-23T01:37:24.368Z,100619.34
2023-04-23T01:39:53.821Z,100610.09
2023-04-23T01:42:23.349Z,100614.53
2023-04-23T01:44:52.338Z,100610.78
2023-04-23T01:47:21.241Z,100610.78
2023-04-23T01:49:49.357Z,100608.97
2023-04-23T01:52:17.349Z,100605.84
2023-04-23T01:54:45.129Z,100612.97
2023-04-23T01:57:14.241Z,100615.56
2023-04-23T01:59:43.655Z,100595.88
2023-04-23T02:02:13.936Z,100617.28
2023-04-23T02:04:45.544Z,100608.88
2023-04-23T02:07:13.579Z,100607.03
2023-04-23T02:09:42.051Z,100603.19
2023-04-23T02:12:09.830Z,100604.03
2023-04-23T02:14:39.198Z,100609.31
2023-04-23T02:17:07.146Z,100600.34
2023-04-23T02:19:35.831Z,100599.47
2023-04-23T02:22:03.624Z,100599.34
2023-04-23T02:24:31.362Z,100594.78
2023-04-23T02:26:59.141Z,100592.94
2023-04-23T02:29:26.909Z,100596.50
2023-04-23T02:31:56.110Z,100590.25
2023-04-23T02:34:24.089Z,100593.94
2023-04-23T02:36:52.780Z,100584.09
2023-04-23T02:39:20.619Z,100581.38
2023-04-23T02:41:49.147Z,100582.13
2023-04-23T02:44:16.926Z,100588.63
2023-04-23T02:46:44.747Z,100582.53
2023-04-23T02:49:14.690Z,100582.09
2023-04-23T02:51:42.472Z,100587.78
2023-04-23T02:54:11.237Z,100592.38
2023-04-23T02:56:38.939Z,100595.91
2023-04-23T02:59:07.120Z,100589.66
2023-04-23T03:01:34.881Z,100588.63
2023-04-23T03:04:03.593Z,100584.34
2023-04-23T03:06:34.581Z,100585.09
2023-04-23T03:09:02.671Z,100583.38
2023-04-23T03:11:30.411Z,100575.06
2023-04-23T03:13:58.302Z,100587.06
2023-04-23T03:16:26.933Z,100584.25
2023-04-23T03:18:54.766Z,100583.38
2023-04-23T03:21:22.510Z,100584.25
2023-04-23T03:23:51.608Z,100578.81
2023-04-23T03:26:19.426Z,100581.38
2023-04-23T03:28:47.211Z,100579.81
2023-04-23T03:31:15.003Z,100580.66
2023-04-23T03:33:42.799Z,100574.53
2023-04-23T03:36:10.943Z,100566.53
2023-04-23T03:38:38.882Z,100558.13
2023-04-23T03:41:08.035Z,100562.25
2023-04-23T03:43:35.783Z,100559.56
2023-04-23T03:46:03.678Z,100562.53
2023-04-23T03:48:31.726Z,100565.94
2023-04-23T03:50:59.654Z,100563.38
2023-04-23T03:53:28.008Z,100581.50
2023-04-23T03:55:55.794Z,100571.66
2023-04-23T03:58:25.086Z,100573.63
2023-04-23T04:00:53.091Z,100570.19
2023-04-23T04:03:21.590Z,100564.34
2023-04-23T04:05:49.595Z,100573.19
2023-04-23T04:08:17.596Z,100563.75
2023-04-23T04:10:45.422Z,100548.94
2023-04-23T04:13:13.330Z,100568.91
2023-04-23T04:15:42.513Z,100576.28
2023-04-23T04:18:10.693Z,100560.41
2023-04-23T04:20:38.444Z,100572.00
2023-04-23T04:23:06.293Z,100573.72
2023-04-23T04:25:34.026Z,100565.16
2023-04-23T04:28:01.815Z,100576.69
2023-04-23T04:30:29.599Z,100570.44
2023-04-23T04:32:59.946Z,100571.56
2023-04-23T04:35:28.059Z,100567.28
2023-04-23T04:37:55.886Z,100569.13
2023-04-23T04:40:24.140Z,100570.97
2023-04-23T04:42:52.966Z,100576.38
2023-04-23T04:45:20.846Z,100567.81
2023-04-23T04:47:48.828Z,100571.22
2023-04-23T04:50:18.185Z,100570.25
2023-04-23T04:52:45.970Z,100570.38
2023-04-23T04:55:13.909Z,100553.22
2023-04-23T04:57:41.653Z,100563.53
2023-04-23T05:00:24.332Z,100570.06
2023-04-23T05:02:52.451Z,100574.47
2023-04-23T05:05:23.685Z,100562.38
2023-04-23T05:07:51.821Z,100574.94
2023-04-23T05:10:19.700Z,100573.09
2023-04-23T05:12:47.815Z,100566.69
2023-04-23T05:15:16.446Z,100575.25
2023-04-23T05:17:45.105Z,100573.28
2023-04-23T05:20:13.139Z,100575.31
2023-04-23T05:22:43.438Z,100568.31
2023-04-23T05:25:12.733Z,100570.34
2023-04-23T05:27:41.178Z,100562.22
2023-04-23T05:30:10.883Z,100560.09
2023-04-23T05:32:39.290Z,100564.97
2023-04-23T05:35:08.029Z,100562.13
2023-04-23T05:37:35.904Z,100565.41
2023-04-23T05:40:07.210Z,100564.16
2023-04-23T05:42:35.969Z,100563.88
2023-04-23T05:45:06.635Z,100567.31
2023-04-23T05:47:35.804Z,100565.94
2023-04-23T05:50:03.631Z,100567.50
2023-04-23T05:52:33.435Z,100573.38
2023-04-23T05:55:01.297Z,100566.66
2023-04-23T05:57:30.385Z,100557.53
2023-04-23T05:59:58.163Z,100557.72
2023-04-23T06:02:26.220Z,100561.69
2023-04-23T06:04:54.413Z,100556.75
2023-04-23T06:07:22.294Z,100551.03
2023-04-23T06:09:50.080Z,100561.88
2023-04-23T06:12:17.896Z,100560.31
2023-04-23T06:14:47.675Z,100553.59
2023-04-23T06:17:15.424Z,100559.91
2023-04-23T06:19:43.252Z,100550.78
2023-04-23T06:22:11.106Z,100552.59
2023-04-23T06:24:39.152Z,100550.03
2023-04-23T06:27:07.261Z,100546.47
2023-04-23T06:29:35.038Z,100542.59
2023-04-23T06:32:05.111Z,100546.28
2023-04-23T06:34:32.975Z,100543.38
2023-04-23T06:37:01.021Z,100530.66
2023-04-23T06:39:28.808Z,100518.66
2023-04-23T06:41:58.132Z,100535.13
2023-04-23T06:44:25.929Z,100535.97
2023-04-23T06:46:53.880Z,100536.78
2023-04-23T06:49:24.910Z,100537.59
2023-04-23T06:51:52.721Z,100530.53
2023-04-23T06:54:20.475Z,100532.91
2023-04-23T06:56:48.242Z,100540.53
2023-04-23T06:59:17.734Z,100533.88
2023-04-23T07:01:45.512Z,100532.25
2023-04-23T07:04:13.358Z,100526.72
2023-04-23T07:06:42.516Z,100520.88
2023-04-23T07:09:10.352Z,100522.34
2023-04-23T07:11:38.142Z,100518.06
2023-04-23T07:14:06.420Z,100520.66
2023-04-23T07:16:36.656Z,100521.25
2023-04-23T07:19:04.498Z,100519.28
2023-04-23T07:21:33.130Z,100524.31
2023-04-23T07:24:06.849Z,100509.91
2023-04-23T07:26:35.129Z,100503.81
2023-04-23T07:29:03.230Z,100514.28
2023-04-23T07:31:31.099Z,100507.69
2023-04-23T07:34:01.307Z,100499.38
2023-04-23T07:36:29.285Z,100502.97
2023-04-23T07:38:57.183Z,100498.19
2023-04-23T07:41:26.423Z,100503.84
2023-04-23T07:43:54.422Z,100508.81
2023-04-23T07:46:22.233Z,100502.16
2023-04-23T07:48:50.188Z,100495.03
2023-04-23T07:51:18.057Z,100495.22
2023-04-23T07:53:46.983Z,100502.34
2023-04-23T07:56:15.645Z,100504.91
2023-04-23T07:58:44.748Z,100500.69
2023-04-23T08:01:12.533Z,100497.78
2023-04-23T08:03:40.485Z,100494.50
2023-04-23T08:06:08.553Z,100497.91
2023-04-23T08:08:36.366Z,100492.44
2023-04-23T08:11:04.159Z,100484.19
2023-04-23T08:13:31.958Z,100487.25
2023-04-23T08:16:01.157Z,100492.69
2023-04-23T08:18:28.928Z,100485.16
2023-04-23T08:20:57.575Z,100478.13
2023-04-23T08:23:25.726Z,100484.41
2023-04-23T08:25:53.495Z,100481.44
2023-04-23T08:28:21.374Z,100483.47
2023-04-23T08:30:49.274Z,100494.19
2023-04-23T08:33:18.464Z,100477.06
2023-04-23T08:35:46.468Z,100484.03
2023-04-23T08:38:14.205Z,100491.66
2023-04-23T08:40:43.582Z,100487.50
2023-04-23T08:43:17.261Z,100478.97
2023-04-23T08:45:47.588Z,100475.69
2023-04-23T08:48:15.955Z,100480.91
2023-04-23T08:50:46.029Z,100488.53
2023-04-23T08:53:19.173Z,100482.66
2023-04-23T08:55:48.077Z,100484.47
2023-04-23T08:58:16.464Z,100488.81
2023-04-23T09:00:44.830Z,100483.94
2023-04-23T09:03:16.335Z,100485.94
2023-04-23T09:05:46.564Z,100486.78
2023-04-23T09:08:14.414Z,100482.94
2023-04-23T09:10:43.680Z,100484.94
2023-04-23T09:13:14.075Z,100488.25
2023-04-23T09:16:32.478Z,100475.75
2023-04-23T09:19:00.452Z,100480.91
2023-04-23T09:21:29.585Z,100473.22
2023-04-23T09:24:05.668Z,100476.53
2023-04-23T09:26:33.544Z,100464.75
2023-04-23T09:29:01.339Z,100467.88
2023-04-23T09:31:29.139Z,100468.06
2023-04-23T09:33:56.961Z,100453.13
2023-04-23T09:36:25.292Z,100457.63
2023-04-23T09:38:57.598Z,100464.06
2023-04-23T09:41:26.684Z,100465.28
2023-04-23T09:43:55.725Z,100463.03
2023-04-23T09:46:40.411Z,100462.06
2023-04-23T09:49:11.290Z,100459.22
2023-04-23T09:51:40.638Z,100451.72
2023-04-23T09:54:18.760Z,100447.53
2023-04-23T09:56:51.527Z,100442.50
2023-04-23T09:59:32.599Z,100447.81
2023-04-23T10:02:12.485Z,100442.38
2023-04-23T10:04:41.945Z,100444.09
2023-04-23T10:09:45.951Z,100438.41
2023-04-23T10:14:49.295Z,100433.53
2023-04-23T10:17:18.113Z,100431.50
2023-04-23T10:19:46.737Z,100433.53
2023-04-23T10:22:19.944Z,100436.13
2023-04-23T10:24:56.018Z,100425.06
2023-04-23T10:27:44.155Z,100431.69
2023-04-23T10:30:16.646Z,100425.63
2023-04-23T10:32:46.118Z,100418.88
2023-04-23T10:35:13.949Z,100421.44
2023-04-23T10:37:42.744Z,100407.06
2023-04-23T10:40:15.205Z,100401.28
2023-04-23T10:42:45.476Z,100405.31
2023-04-23T10:45:24.059Z,100406.38
2023-04-23T10:47:55.092Z,100405.13
2023-04-23T10:50:24.800Z,100389.94
2023-04-23T10:52:54.554Z,100385.91
2023-04-23T10:55:25.623Z,100385.03
2023-04-23T10:58:02.381Z,100381.25
2023-04-23T11:00:43.069Z,100383.78
2023-04-23T11:03:31.751Z,100374.66
2023-04-23T11:06:02.902Z,100375.53
2023-04-23T11:08:32.528Z,100365.66
2023-04-23T11:11:03.385Z,100365.03
2023-04-23T11:13:31.310Z,100364.84
2023-04-23T11:16:16.048Z,100359.31
2023-04-23T11:18:57.815Z,100350.81
2023-04-23T11:21:59.119Z,100348.66
2023-04-23T11:24:29.527Z,100340.13
2023-04-23T11:26:59.382Z,100343.50
2023-04-23T11:29:29.177Z,100339.88
2023-04-23T11:32:03.211Z,100332.50
2023-04-23T11:34:31.852Z,100323.19
2023-04-23T11:37:00.810Z,100328.31
2023-04-23T11:39:28.642Z,100321.84
2023-04-23T11:41:59.283Z,100317.00
2023-04-23T11:44:27.225Z,100307.34
2023-04-23T11:46:57.092Z,100308.25
2023-04-23T11:49:26.379Z,100302.19
2023-04-23T11:51:54.362Z,100296.72
2023-04-23T11:54:27.659Z,100291.88
2023-04-23T11:56:58.145Z,100292.34
2023-04-23T11:59:27.593Z,100275.22
2023-04-23T12:01:57.223Z,100265.25
2023-04-23T12:04:26.692Z,100284.97
2023-04-23T12:06:56.049Z,100282.84
2023-04-23T12:09:25.301Z,100290.03
2023-04-23T12:11:53.388Z,100276.47
2023-04-23T12:14:28.593Z,100270.78
2023-04-23T12:16:58.295Z,100261.66
2023-04-23T12:19:29.376Z,100261.06
2023-04-23T12:21:59.005Z,100252.56
2023-04-23T12:24:28.384Z,100257.44
2023-04-23T12:26:58.428Z,100251.09
2023-04-23T12:29:27.351Z,100253.84
2023-04-23T12:31:59.131Z,100248.75
2023-04-23T12:34:28.277Z,100248.56
2023-04-23T12:36:58.078Z,100239.47
2023-04-23T12:39:30.695Z,100234.56
2023-04-23T12:42:01.635Z,100234.78
2023-04-23T12:44:30.526Z,100245.50
2023-04-23T12:47:00.318Z,100260.88
2023-04-23T12:49:31.600Z,100235.59
2023-04-23T12:52:01.466Z,100251.84
2023-04-23T12:54:31.388Z,100247.09
2023-04-23T12:57:00.291Z,100241.78
2023-04-23T12:59:28.142Z,100235.22
2023-04-23T13:01:56.277Z,100241.75
2023-04-23T13:04:24.242Z,100241.09
2023-04-23T13:06:53.499Z,100241.06
2023-04-23T13:09:22.156Z,100231.47
2023-04-23T13:11:50.595Z,100220.84
2023-04-23T13:14:18.845Z,100213.22
2023-04-23T13:16:46.762Z,100222.91
2023-04-23T13:19:16.247Z,100225.19
2023-04-23T13:21:44.118Z,100220.50
2023-04-23T13:24:13.539Z,100223.75
2023-04-23T13:26:41.503Z,100202.59
2023-04-23T13:29:09.379Z,100208.81
2023-04-23T13:31:37.206Z,100209.69
2023-04-23T13:34:05.317Z,100203.31
2023-04-23T13:36:33.167Z,100212.81
2023-04-23T13:39:00.949Z,100209.44
2023-04-23T13:41:30.486Z,100200.34
2023-04-23T13:43:58.570Z,100202.63
2023-04-23T13:46:26.684Z,100193.31
2023-04-23T13:48:54.827Z,100202.19
2023-04-23T13:51:34.040Z,100199.78
2023-04-23T13:54:03.091Z,100181.25
2023-04-23T13:56:32.769Z,100178.47
2023-04-23T14:01:33.110Z,100176.97
2023-04-23T14:04:01.088Z,100180.75
2023-04-23T14:06:29.247Z,100179.72
2023-04-23T14:08:57.813Z,100170.19
2023-04-23T14:11:26.001Z,100160.09
2023-04-23T14:13:56.622Z,100165.16
2023-04-23T14:16:38.314Z,100120.06
2023-04-23T14:19:06.129Z,100158.34
2023-04-23T14:21:35.775Z,100174.41
2023-04-23T14:24:10.604Z,100166.97
2023-04-23T14:26:48.897Z,100166.50
2023-04-23T14:29:26.338Z,100174.72
2023-04-23T14:31:54.371Z,100160.47
2023-04-23T14:34:22.468Z,100167.84
2023-04-23T14:36:52.803Z,100172.88
2023-04-23T14:39:21.057Z,100178.44
2023-04-23T14:41:48.897Z,100175.25
2023-04-23T14:44:16.816Z,100161.03
2023-04-23T14:46:46.060Z,100173.88
2023-04-23T14:49:14.391Z,100181.44
2023-04-23T14:51:42.650Z,100176.91
2023-04-23T14:54:10.567Z,100177.22
2023-04-23T14:56:38.413Z,100170.13
2023-04-23T14:59:06.263Z,100165.63
2023-04-23T15:01:34.099Z,100164.56
2023-04-23T15:04:03.456Z,100167.97
2023-04-23T15:06:38.408Z,100163.06
2023-04-23T15:09:06.240Z,100160.44
2023-04-23T15:11:34.585Z,100162.22
2023-04-23T15:14:07.528Z,100147.09
2023-04-23T15:19:10.135Z,100146.63
2023-04-23T15:21:38.286Z,100143.22
2023-04-23T15:24:07.781Z,100142.75
2023-04-23T15:26:36.326Z,100132.00
2023-04-23T15:29:04.670Z,100138.03
2023-04-23T15:31:32.595Z,100123.25
2023-04-23T15:34:00.544Z,100125.03
2023-04-23T15:36:29.661Z,100101.16
2023-04-23T15:38:57.490Z,100101.44
2023-04-23T15:41:27.080Z,100108.47
2023-04-23T15:43:55.758Z,100085.38
2023-04-23T15:46:23.598Z,100098.84
2023-04-23T15:48:51.536Z,100100.06
2023-04-23T15:51:19.518Z,100089.41
2023-04-23T15:53:49.053Z,100091.16
2023-04-23T15:56:16.830Z,100087.28
2023-04-23T15:58:44.647Z,100083.72
2023-04-23T16:01:12.478Z,100082.19
2023-04-23T16:03:42.511Z,100080.41
2023-04-23T16:06:13.576Z,100060.31
2023-04-23T16:08:41.336Z,100060.00
2023-04-23T16:11:10.714Z,100052.66
2023-04-23T16:13:38.533Z,100066.00
2023-04-23T16:16:06.663Z,100058.16
2023-04-23T16:18:37.066Z,100051.56
2023-04-23T16:21:06.227Z,100049.66
2023-04-23T16:23:34.087Z,100031.72
2023-04-23T16:26:02.550Z,100033.97
2023-04-23T16:28:31.740Z,100034.81
2023-04-23T16:30:59.534Z,100024.03
2023-04-23T16:33:27.394Z,100016.75
2023-04-23T16:35:57.123Z,100006.22
2023-04-23T16:38:24.934Z,100007.03
2023-04-23T16:40:52.893Z,99985.84
2023-04-23T16:43:20.724Z,99973.59
2023-04-23T16:45:49.962Z,99982.25
2023-04-23T16:48:19.896Z,99977.81
2023-04-23T16:50:53.135Z,99973.44
2023-04-23T16:53:25.339Z,99956.94
2023-04-23T16:55:53.172Z,99955.72
2023-04-23T16:58:22.804Z,99947.72
2023-04-23T17:00:52.059Z,99941.53
2023-04-23T17:03:19.970Z,99935.78
2023-04-23T17:05:51.328Z,99929.63
2023-04-23T17:08:19.229Z,99912.00
2023-04-23T17:10:47.141Z,99920.66
2023-04-23T17:13:14.980Z,99912.88
2023-04-23T17:15:43.176Z,99911.56
2023-04-23T17:18:12.599Z,99909.03
2023-04-23T17:20:40.590Z,99899.13
2023-04-23T17:23:08.410Z,99895.44
2023-04-23T17:25:36.176Z,99889.81
2023-04-23T17:28:03.981Z,99888.97
2023-04-23T17:30:31.829Z,99890.66
2023-04-23T17:32:59.789Z,99874.13
2023-04-23T17:35:28.986Z,99871.41
2023-04-23T17:37:56.735Z,99863.56
2023-04-23T17:40:24.500Z,99865.38
2023-04-23T17:42:52.295Z,99858.94
2023-04-23T17:45:20.181Z,99856.06
2023-04-23T17:47:48.052Z,99851.72
2023-04-23T17:50:15.929Z,99845.91
2023-04-23T17:52:45.287Z,99838.09
2023-04-23T17:55:13.340Z,99824.81
2023-04-23T17:57:41.278Z,99823.00
2023-04-23T18:00:12.253Z,99815.03
2023-04-23T18:02:41.646Z,99809.94
2023-04-23T18:05:10.294Z,99804.38
2023-04-23T18:07:38.574Z,99801.16
2023-04-23T18:10:09.957Z,99804.56
2023-04-23T18:12:37.987Z,99803.09
2023-04-23T18:15:06.173Z,99796.78
2023-04-23T18:17:33.960Z,99798.84
2023-04-23T18:20:01.806Z,99792.56
2023-04-23T18:22:29.622Z,99786.63
2023-04-23T18:24:57.446Z,99769.66
2023-04-23T18:27:27.117Z,99784.91
2023-04-23T18:29:57.631Z,99779.34
2023-04-23T18:32:37.499Z,99768.81
2023-04-23T18:35:08.371Z,99766.50
2023-04-23T18:37:42.866Z,99760.03
2023-04-23T18:40:11.330Z,99764.25
2023-04-23T18:42:40.586Z,99764.13
2023-04-23T18:45:10.673Z,99765.97
2023-04-23T18:47:44.251Z,99767.38
2023-04-23T18:50:31.761Z,99761.06
2023-04-23T18:52:59.537Z,99762.28
2023-04-23T18:55:27.458Z,99765.50
2023-04-23T18:57:57.346Z,99760.22
2023-04-23T19:00:25.539Z,99753.47
2023-04-23T19:02:53.558Z,99741.41
2023-04-23T19:05:21.654Z,99743.94
2023-04-23T19:07:49.615Z,99730.53
2023-04-23T19:10:17.772Z,99737.31
2023-04-23T19:12:45.545Z,99736.97
2023-04-23T19:15:15.691Z,99721.13
2023-04-23T19:17:43.754Z,99728.78
2023-04-23T19:20:12.884Z,99717.56
2023-04-23T19:22:42.212Z,99729.25
2023-04-23T19:25:11.086Z,99733.66
2023-04-23T19:27:39.133Z,99722.66
2023-04-23T19:30:10.063Z,99724.34
2023-04-23T19:32:39.278Z,99721.09
2023-04-23T19:35:07.502Z,99726.19
2023-04-23T19:37:36.163Z,99706.03
2023-04-23T19:40:04.928Z,99703.63
2023-04-23T19:42:32.721Z,99705.81
2023-04-23T19:45:00.513Z,99700.69
2023-04-23T19:47:28.410Z,99707.72
2023-04-23T19:49:57.722Z,99708.25
2023-04-23T19:52:27.665Z,99709.56
2023-04-23T19:54:55.888Z,99709.75
2023-04-23T19:57:23.824Z,99721.97
2023-04-23T19:59:51.669Z,99717.06
2023-04-23T20:02:19.723Z,99718.75
2023-04-23T20:04:47.669Z,99718.25
2023-04-23T20:07:16.980Z,99728.81
2023-04-23T20:09:45.160Z,99730.03
2023-04-23T20:12:14.567Z,99727.84
2023-04-23T20:14:42.790Z,99730.03
2023-04-23T20:17:10.887Z,99735.28
2023-04-23T20:19:38.850Z,99711.03
2023-04-23T20:22:06.849Z,99730.88
2023-04-23T20:24:38.180Z,99741.91
2023-04-23T20:27:06.995Z,99742.59
2023-04-23T20:29:34.880Z,99724.91
2023-04-23T20:32:02.735Z,99732.34
2023-04-23T20:34:30.620Z,99722.69
2023-04-23T20:37:00.193Z,99732.53
2023-04-23T20:39:28.037Z,99728.97
2023-04-23T20:41:57.840Z,99733.38
2023-04-23T20:44:25.963Z,99728.50
2023-04-23T20:46:54.022Z,99715.63
2023-04-23T20:49:22.402Z,99728.53
2023-04-23T20:51:50.418Z,99724.78
2023-04-23T20:54:18.364Z,99726.63
2023-04-23T20:56:46.325Z,99728.34
2023-04-23T20:59:15.996Z,99716.13
2023-04-23T21:01:44.134Z,99721.19
2023-04-23T21:04:12.273Z,99716.97
2023-04-23T21:06:40.475Z,99712.53
2023-04-23T21:09:08.435Z,99709.19
2023-04-23T21:11:36.261Z,99714.44
2023-04-23T21:14:08.517Z,99702.44
2023-04-23T21:16:39.592Z,99718.69
2023-04-23T21:19:07.575Z,99711.41
2023-04-23T21:21:35.402Z,99705.47
2023-04-23T21:24:03.191Z,99703.56
2023-04-23T21:26:31.910Z,99683.44
2023-04-23T21:28:59.884Z,99696.13
2023-04-23T21:31:39.827Z,99709.38
2023-04-23T21:34:09.807Z,99708.38
2023-04-23T21:36:39.129Z,99694.78
2023-04-23T21:39:09.031Z,99699.72
2023-04-23T21:41:38.367Z,99693.63
2023-04-23T21:44:06.371Z,99709.09
2023-04-23T21:46:34.475Z,99706.38
2023-04-23T21:49:02.546Z,99721.19
2023-04-23T21:51:36.836Z,99709.63
2023-04-23T21:54:05.601Z,99714.09
2023-04-23T21:56:33.790Z,99716.81
2023-04-23T21:59:01.660Z,99722.75
2023-04-23T22:01:29.690Z,99719.91
2023-04-23T22:03:59.227Z,99738.22
2023-04-23T22:06:27.685Z,99742.13
2023-04-23T22:08:57.561Z,99736.66
2023-04-23T22:11:25.837Z,99752.97
2023-04-23T22:13:53.865Z,99757.88
2023-04-23T22:16:28.543Z,99769.72
2023-04-23T22:18:56.845Z,99772.47
2023-04-23T22:21:24.711Z,99770.09
2023-04-23T22:23:52.885Z,99778.38
2023-04-23T22:26:22.190Z,99767.31
2023-04-23T22:28:50.043Z,99779.72
2023-04-23T22:31:18.401Z,99778.53
2023-04-23T22:33:46.604Z,99791.78
2023-04-23T22:36:15.067Z,99797.53
2023-04-23T22:38:43.105Z,99796.72
2023-04-23T22:41:11.079Z,99804.16
2023-04-23T22:43:40.406Z,99802.63
2023-04-23T22:46:08.268Z,99780.19
2023-04-23T22:48:37.882Z,99784.41
2023-04-23T22:51:07.092Z,99790.34
2023-04-23T22:53:35.053Z,99764.53
2023-04-23T22:56:03.434Z,99820.53
2023-04-23T22:58:31.480Z,99834.97
2023-04-23T23:01:01.935Z,99817.78
2023-04-23T23:03:29.975Z,99819.81
2023-04-23T23:05:57.822Z,99840.53
2023-04-23T23:08:25.642Z,99843.91
2023-04-23T23:10:53.654Z,99850.53
2023-04-23T23:13:21.399Z,99829.13
2023-04-23T23:15:49.208Z,99843.91
2023-04-23T23:18:18.411Z,99853.06
2023-04-23T23:20:46.665Z,99856.47
2023-04-23T23:23:14.596Z,99857.34
2023-04-23T23:25:42.450Z,99855.63
2023-04-23T23:28:10.392Z,99858.19
2023-04-23T23:30:38.223Z,99853.94
2023-04-23T23:33:06.446Z,99861.53
2023-04-23T23:35:35.768Z,99865.09
2023-04-23T23:38:03.831Z,99860.72
2023-04-23T23:40:31.641Z,99874.09
2023-04-23T23:42:59.574Z,99871.56
2023-04-23T23:45:27.503Z,99874.59
2023-04-23T23:47:56.146Z,99880.53
2023-04-23T23:50:23.974Z,99880.00
2023-04-23T23:52:53.168Z,99880.84
2023-04-23T23:55:21.284Z,99879.69
2023-04-23T23:57:49.099Z,99881.00
